sensor_id;sensor_type;location;lat;lon;timestamp;temperature;humidity
78345;DHT22;67620;51.134;6.548;2023-05-21T00:00:35;15.70;66.20
78345;DHT22;67620;51.134;6.548;2023-05-21T00:03:01;15.70;66.40
78345;DHT22;67620;51.134;6.548;2023-05-21T00:05:26;15.60;66.90
78345;DHT22;67620;51.134;6.548;2023-05-21T00:07:52;15.60;66.80
78345;DHT22;67620;51.134;6.548;2023-05-21T00:10:19;15.60;67.00
78345;DHT22;67620;51.134;6.548;2023-05-21T00:12:44;15.60;66.90
78345;DHT22;67620;51.134;6.548;2023-05-21T00:15:11;15.60;67.00
78345;DHT22;67620;51.134;6.548;2023-05-21T00:17:37;15.50;67.10
78345;DHT22;67620;51.134;6.548;2023-05-21T00:20:03;15.50;67.30
78345;DHT22;67620;51.134;6.548;2023-05-21T00:22:31;15.50;67.40
78345;DHT22;67620;51.134;6.548;2023-05-21T00:24:58;15.50;67.40
78345;DHT22;67620;51.134;6.548;2023-05-21T00:27:23;15.50;67.40
78345;DHT22;67620;51.134;6.548;2023-05-21T00:29:49;15.50;67.40
78345;DHT22;67620;51.134;6.548;2023-05-21T00:32:14;15.50;67.30
78345;DHT22;67620;51.134;6.548;2023-05-21T00:34:40;15.50;67.30
78345;DHT22;67620;51.134;6.548;2023-05-21T00:37:05;15.40;67.70
78345;DHT22;67620;51.134;6.548;2023-05-21T00:39:31;15.40;67.60
78345;DHT22;67620;51.134;6.548;2023-05-21T00:41:56;15.40;67.70
78345;DHT22;67620;51.134;6.548;2023-05-21T00:44:22;15.40;67.80
78345;DHT22;67620;51.134;6.548;2023-05-21T00:46:49;15.40;68.00
78345;DHT22;67620;51.134;6.548;2023-05-21T00:49:18;15.30;67.90
78345;DHT22;67620;51.134;6.548;2023-05-21T00:51:44;15.30;67.80
78345;DHT22;67620;51.134;6.548;2023-05-21T00:54:10;15.30;67.90
78345;DHT22;67620;51.134;6.548;2023-05-21T00:56:36;15.30;68.00
78345;DHT22;67620;51.134;6.548;2023-05-21T00:59:01;15.30;68.10
78345;DHT22;67620;51.134;6.548;2023-05-21T01:01:31;15.30;68.20
78345;DHT22;67620;51.134;6.548;2023-05-21T01:04:00;15.30;68.40
78345;DHT22;67620;51.134;6.548;2023-05-21T01:06:26;15.20;68.20
78345;DHT22;67620;51.134;6.548;2023-05-21T01:08:51;15.30;68.30
78345;DHT22;67620;51.134;6.548;2023-05-21T01:11:17;15.30;68.30
78345;DHT22;67620;51.134;6.548;2023-05-21T01:13:46;15.30;68.20
78345;DHT22;67620;51.134;6.548;2023-05-21T01:16:12;15.20;68.50
78345;DHT22;67620;51.134;6.548;2023-05-21T01:18:38;15.10;68.90
78345;DHT22;67620;51.134;6.548;2023-05-21T01:21:04;15.20;68.70
78345;DHT22;67620;51.134;6.548;2023-05-21T01:23:31;15.20;68.80
78345;DHT22;67620;51.134;6.548;2023-05-21T01:25:57;15.20;68.60
78345;DHT22;67620;51.134;6.548;2023-05-21T01:28:23;15.20;68.50
78345;DHT22;67620;51.134;6.548;2023-05-21T01:30:48;15.20;68.60
78345;DHT22;67620;51.134;6.548;2023-05-21T01:33:32;15.20;68.70
78345;DHT22;67620;51.134;6.548;2023-05-21T01:36:08;15.20;68.70
78345;DHT22;67620;51.134;6.548;2023-05-21T01:38:59;15.10;68.80
78345;DHT22;67620;51.134;6.548;2023-05-21T01:41:28;15.10;68.90
78345;DHT22;67620;51.134;6.548;2023-05-21T01:43:56;15.10;68.90
78345;DHT22;67620;51.134;6.548;2023-05-21T01:46:22;15.10;69.00
78345;DHT22;67620;51.134;6.548;2023-05-21T01:48:49;15.10;68.80
78345;DHT22;67620;51.134;6.548;2023-05-21T01:51:17;15.10;68.80
78345;DHT22;67620;51.134;6.548;2023-05-21T01:53:43;15.10;69.00
78345;DHT22;67620;51.134;6.548;2023-05-21T01:56:08;15.10;68.90
78345;DHT22;67620;51.134;6.548;2023-05-21T01:58:35;15.10;69.00
78345;DHT22;67620;51.134;6.548;2023-05-21T02:01:01;15.00;69.10
78345;DHT22;67620;51.134;6.548;2023-05-21T02:03:28;15.10;69.00
78345;DHT22;67620;51.134;6.548;2023-05-21T02:05:55;15.00;69.10
78345;DHT22;67620;51.134;6.548;2023-05-21T02:08:20;15.00;69.10
78345;DHT22;67620;51.134;6.548;2023-05-21T02:10:48;15.00;69.20
78345;DHT22;67620;51.134;6.548;2023-05-21T02:13:13;15.00;69.40
78345;DHT22;67620;51.134;6.548;2023-05-21T02:15:39;15.00;69.30
78345;DHT22;67620;51.134;6.548;2023-05-21T02:18:04;15.00;69.40
78345;DHT22;67620;51.134;6.548;2023-05-21T02:20:30;15.00;69.50
78345;DHT22;67620;51.134;6.548;2023-05-21T02:22:56;15.00;69.40
78345;DHT22;67620;51.134;6.548;2023-05-21T02:25:21;14.90;69.80
78345;DHT22;67620;51.134;6.548;2023-05-21T02:27:47;14.90;69.70
78345;DHT22;67620;51.134;6.548;2023-05-21T02:30:17;14.90;69.60
78345;DHT22;67620;51.134;6.548;2023-05-21T02:32:42;14.90;69.60
78345;DHT22;67620;51.134;6.548;2023-05-21T02:35:10;14.90;69.50
78345;DHT22;67620;51.134;6.548;2023-05-21T02:37:37;14.90;69.50
78345;DHT22;67620;51.134;6.548;2023-05-21T02:40:04;14.90;69.50
78345;DHT22;67620;51.134;6.548;2023-05-21T02:42:32;14.90;69.80
78345;DHT22;67620;51.134;6.548;2023-05-21T02:44:58;14.90;69.60
78345;DHT22;67620;51.134;6.548;2023-05-21T02:47:23;14.90;69.60
78345;DHT22;67620;51.134;6.548;2023-05-21T02:49:51;14.80;70.10
78345;DHT22;67620;51.134;6.548;2023-05-21T02:52:17;14.80;69.90
78345;DHT22;67620;51.134;6.548;2023-05-21T02:54:46;14.80;69.80
78345;DHT22;67620;51.134;6.548;2023-05-21T02:57:12;14.80;70.00
78345;DHT22;67620;51.134;6.548;2023-05-21T02:59:37;14.80;69.90
78345;DHT22;67620;51.134;6.548;2023-05-21T03:02:03;14.80;69.90
78345;DHT22;67620;51.134;6.548;2023-05-21T03:04:29;14.80;70.00
78345;DHT22;67620;51.134;6.548;2023-05-21T03:06:55;14.80;70.10
78345;DHT22;67620;51.134;6.548;2023-05-21T03:09:21;14.80;70.00
78345;DHT22;67620;51.134;6.548;2023-05-21T03:11:47;14.80;70.00
78345;DHT22;67620;51.134;6.548;2023-05-21T03:14:12;14.80;70.10
78345;DHT22;67620;51.134;6.548;2023-05-21T03:16:38;14.70;70.20
78345;DHT22;67620;51.134;6.548;2023-05-21T03:19:06;14.80;70.00
78345;DHT22;67620;51.134;6.548;2023-05-21T03:21:32;14.70;70.10
78345;DHT22;67620;51.134;6.548;2023-05-21T03:23:58;14.70;70.40
78345;DHT22;67620;51.134;6.548;2023-05-21T03:26:24;14.70;70.50
78345;DHT22;67620;51.134;6.548;2023-05-21T03:28:52;14.70;70.30
78345;DHT22;67620;51.134;6.548;2023-05-21T03:31:18;14.70;70.50
78345;DHT22;67620;51.134;6.548;2023-05-21T03:33:43;14.70;70.20
78345;DHT22;67620;51.134;6.548;2023-05-21T03:36:09;14.60;70.50
78345;DHT22;67620;51.134;6.548;2023-05-21T03:38:34;14.70;70.30
78345;DHT22;67620;51.134;6.548;2023-05-21T03:41:00;14.70;70.60
78345;DHT22;67620;51.134;6.548;2023-05-21T03:43:25;14.60;70.60
78345;DHT22;67620;51.134;6.548;2023-05-21T03:45:50;14.60;70.70
78345;DHT22;67620;51.134;6.548;2023-05-21T03:48:16;14.70;70.40
78345;DHT22;67620;51.134;6.548;2023-05-21T03:50:42;14.70;70.40
78345;DHT22;67620;51.134;6.548;2023-05-21T03:53:07;14.70;70.30
78345;DHT22;67620;51.134;6.548;2023-05-21T03:55:35;14.70;70.50
78345;DHT22;67620;51.134;6.548;2023-05-21T03:58:02;14.60;70.90
78345;DHT22;67620;51.134;6.548;2023-05-21T04:00:28;14.60;71.00
78345;DHT22;67620;51.134;6.548;2023-05-21T04:02:53;14.60;70.80
78345;DHT22;67620;51.134;6.548;2023-05-21T04:05:19;14.60;70.90
78345;DHT22;67620;51.134;6.548;2023-05-21T04:07:44;14.60;70.90
78345;DHT22;67620;51.134;6.548;2023-05-21T04:10:11;14.60;70.90
78345;DHT22;67620;51.134;6.548;2023-05-21T04:12:37;14.60;70.80
78345;DHT22;67620;51.134;6.548;2023-05-21T04:15:02;14.60;70.90
78345;DHT22;67620;51.134;6.548;2023-05-21T04:17:28;14.60;71.10
78345;DHT22;67620;51.134;6.548;2023-05-21T04:19:54;14.50;71.20
78345;DHT22;67620;51.134;6.548;2023-05-21T04:22:19;14.50;71.20
78345;DHT22;67620;51.134;6.548;2023-05-21T04:24:45;14.60;71.30
78345;DHT22;67620;51.134;6.548;2023-05-21T04:27:13;14.50;71.40
78345;DHT22;67620;51.134;6.548;2023-05-21T04:29:40;14.60;71.40
78345;DHT22;67620;51.134;6.548;2023-05-21T04:32:07;14.60;71.20
78345;DHT22;67620;51.134;6.548;2023-05-21T04:34:32;14.60;71.40
78345;DHT22;67620;51.134;6.548;2023-05-21T04:36:58;14.60;71.40
78345;DHT22;67620;51.134;6.548;2023-05-21T04:39:24;14.50;71.60
78345;DHT22;67620;51.134;6.548;2023-05-21T04:41:50;14.50;71.80
78345;DHT22;67620;51.134;6.548;2023-05-21T04:44:18;14.50;71.80
78345;DHT22;67620;51.134;6.548;2023-05-21T04:46:44;14.60;71.80
78345;DHT22;67620;51.134;6.548;2023-05-21T04:49:10;14.60;71.70
78345;DHT22;67620;51.134;6.548;2023-05-21T04:51:35;14.60;71.70
78345;DHT22;67620;51.134;6.548;2023-05-21T04:54:02;14.60;71.70
78345;DHT22;67620;51.134;6.548;2023-05-21T04:56:28;14.60;71.80
78345;DHT22;67620;51.134;6.548;2023-05-21T04:58:53;14.60;71.80
78345;DHT22;67620;51.134;6.548;2023-05-21T05:01:20;14.60;72.00
78345;DHT22;67620;51.134;6.548;2023-05-21T05:03:50;14.60;71.90
78345;DHT22;67620;51.134;6.548;2023-05-21T05:06:15;14.60;72.00
78345;DHT22;67620;51.134;6.548;2023-05-21T05:08:41;14.60;72.20
78345;DHT22;67620;51.134;6.548;2023-05-21T05:11:07;14.60;72.20
78345;DHT22;67620;51.134;6.548;2023-05-21T05:13:32;14.60;72.40
78345;DHT22;67620;51.134;6.548;2023-05-21T05:15:58;14.60;72.00
78345;DHT22;67620;51.134;6.548;2023-05-21T05:18:24;14.60;72.00
78345;DHT22;67620;51.134;6.548;2023-05-21T05:20:50;14.50;72.30
78345;DHT22;67620;51.134;6.548;2023-05-21T05:23:15;14.50;72.50
78345;DHT22;67620;51.134;6.548;2023-05-21T05:25:41;14.50;72.70
78345;DHT22;67620;51.134;6.548;2023-05-21T05:28:06;14.60;72.40
78345;DHT22;67620;51.134;6.548;2023-05-21T05:30:32;14.60;72.60
78345;DHT22;67620;51.134;6.548;2023-05-21T05:32:57;14.60;72.60
78345;DHT22;67620;51.134;6.548;2023-05-21T05:35:23;14.60;72.60
78345;DHT22;67620;51.134;6.548;2023-05-21T05:37:48;14.60;72.90
78345;DHT22;67620;51.134;6.548;2023-05-21T05:40:14;14.60;72.70
78345;DHT22;67620;51.134;6.548;2023-05-21T05:42:39;14.60;72.60
78345;DHT22;67620;51.134;6.548;2023-05-21T05:45:05;14.70;72.60
78345;DHT22;67620;51.134;6.548;2023-05-21T05:47:31;14.60;72.70
78345;DHT22;67620;51.134;6.548;2023-05-21T05:49:56;14.60;72.70
78345;DHT22;67620;51.134;6.548;2023-05-21T05:52:22;14.60;72.90
78345;DHT22;67620;51.134;6.548;2023-05-21T05:54:47;14.60;73.00
78345;DHT22;67620;51.134;6.548;2023-05-21T05:57:13;14.60;72.90
78345;DHT22;67620;51.134;6.548;2023-05-21T05:59:38;14.70;73.00
78345;DHT22;67620;51.134;6.548;2023-05-21T06:02:04;14.70;73.00
78345;DHT22;67620;51.134;6.548;2023-05-21T06:04:30;14.70;73.10
78345;DHT22;67620;51.134;6.548;2023-05-21T06:06:56;14.70;73.20
78345;DHT22;67620;51.134;6.548;2023-05-21T06:09:24;14.70;72.90
78345;DHT22;67620;51.134;6.548;2023-05-21T06:11:50;14.70;72.80
78345;DHT22;67620;51.134;6.548;2023-05-21T06:14:16;14.80;73.00
78345;DHT22;67620;51.134;6.548;2023-05-21T06:16:41;14.80;73.30
78345;DHT22;67620;51.134;6.548;2023-05-21T06:19:07;14.80;73.30
78345;DHT22;67620;51.134;6.548;2023-05-21T06:21:32;14.80;73.30
78345;DHT22;67620;51.134;6.548;2023-05-21T06:23:58;14.80;73.00
78345;DHT22;67620;51.134;6.548;2023-05-21T06:26:24;14.90;73.00
78345;DHT22;67620;51.134;6.548;2023-05-21T06:28:49;14.90;72.80
78345;DHT22;67620;51.134;6.548;2023-05-21T06:31:15;14.90;72.90
78345;DHT22;67620;51.134;6.548;2023-05-21T06:33:40;14.90;72.70
78345;DHT22;67620;51.134;6.548;2023-05-21T06:36:06;14.90;72.90
78345;DHT22;67620;51.134;6.548;2023-05-21T06:38:32;15.00;73.10
78345;DHT22;67620;51.134;6.548;2023-05-21T06:40:57;15.00;73.10
78345;DHT22;67620;51.134;6.548;2023-05-21T06:43:23;15.00;72.90
78345;DHT22;67620;51.134;6.548;2023-05-21T06:45:48;15.00;73.10
78345;DHT22;67620;51.134;6.548;2023-05-21T06:48:14;15.10;73.00
78345;DHT22;67620;51.134;6.548;2023-05-21T06:50:42;15.10;73.00
78345;DHT22;67620;51.134;6.548;2023-05-21T06:53:08;15.10;73.10
78345;DHT22;67620;51.134;6.548;2023-05-21T06:55:34;15.10;72.80
78345;DHT22;67620;51.134;6.548;2023-05-21T06:58:00;15.20;72.70
78345;DHT22;67620;51.134;6.548;2023-05-21T07:00:26;15.20;73.10
78345;DHT22;67620;51.134;6.548;2023-05-21T07:02:51;15.30;73.00
78345;DHT22;67620;51.134;6.548;2023-05-21T07:05:17;15.40;72.90
78345;DHT22;67620;51.134;6.548;2023-05-21T07:07:42;15.50;72.70
78345;DHT22;67620;51.134;6.548;2023-05-21T07:10:08;15.50;72.50
78345;DHT22;67620;51.134;6.548;2023-05-21T07:12:34;15.60;71.70
78345;DHT22;67620;51.134;6.548;2023-05-21T07:14:59;15.60;72.00
78345;DHT22;67620;51.134;6.548;2023-05-21T07:17:25;15.60;72.00
78345;DHT22;67620;51.134;6.548;2023-05-21T07:19:50;15.70;71.90
78345;DHT22;67620;51.134;6.548;2023-05-21T07:22:16;15.70;71.50
78345;DHT22;67620;51.134;6.548;2023-05-21T07:24:41;15.70;71.80
78345;DHT22;67620;51.134;6.548;2023-05-21T07:27:07;15.70;71.70
78345;DHT22;67620;51.134;6.548;2023-05-21T07:29:32;15.80;71.80
78345;DHT22;67620;51.134;6.548;2023-05-21T07:31:58;15.80;71.50
78345;DHT22;67620;51.134;6.548;2023-05-21T07:34:24;15.80;71.40
78345;DHT22;67620;51.134;6.548;2023-05-21T07:36:49;15.80;71.80
78345;DHT22;67620;51.134;6.548;2023-05-21T07:39:15;15.90;71.80
78345;DHT22;67620;51.134;6.548;2023-05-21T07:41:41;15.90;71.40
78345;DHT22;67620;51.134;6.548;2023-05-21T07:44:06;16.00;71.90
78345;DHT22;67620;51.134;6.548;2023-05-21T07:46:32;16.00;71.50
78345;DHT22;67620;51.134;6.548;2023-05-21T07:48:57;16.00;71.30
78345;DHT22;67620;51.134;6.548;2023-05-21T07:51:23;16.00;71.70
78345;DHT22;67620;51.134;6.548;2023-05-21T07:53:48;16.00;71.10
78345;DHT22;67620;51.134;6.548;2023-05-21T07:56:14;16.10;71.60
78345;DHT22;67620;51.134;6.548;2023-05-21T07:58:39;16.10;71.20
78345;DHT22;67620;51.134;6.548;2023-05-21T08:01:05;16.20;70.90
78345;DHT22;67620;51.134;6.548;2023-05-21T08:03:31;16.30;70.90
78345;DHT22;67620;51.134;6.548;2023-05-21T08:05:59;16.30;71.70
78345;DHT22;67620;51.134;6.548;2023-05-21T08:08:24;16.40;71.00
78345;DHT22;67620;51.134;6.548;2023-05-21T08:10:50;16.40;70.60
78345;DHT22;67620;51.134;6.548;2023-05-21T08:13:16;16.40;70.60
78345;DHT22;67620;51.134;6.548;2023-05-21T08:15:42;16.50;70.30
78345;DHT22;67620;51.134;6.548;2023-05-21T08:18:07;16.50;70.50
78345;DHT22;67620;51.134;6.548;2023-05-21T08:20:33;16.50;70.70
78345;DHT22;67620;51.134;6.548;2023-05-21T08:22:58;16.60;70.40
78345;DHT22;67620;51.134;6.548;2023-05-21T08:25:25;16.70;70.80
78345;DHT22;67620;51.134;6.548;2023-05-21T08:27:50;16.80;70.10
78345;DHT22;67620;51.134;6.548;2023-05-21T08:30:16;16.80;70.20
78345;DHT22;67620;51.134;6.548;2023-05-21T08:32:42;16.80;70.40
78345;DHT22;67620;51.134;6.548;2023-05-21T08:35:07;16.90;69.70
78345;DHT22;67620;51.134;6.548;2023-05-21T08:37:33;17.00;69.60
78345;DHT22;67620;51.134;6.548;2023-05-21T08:39:58;17.10;70.10
78345;DHT22;67620;51.134;6.548;2023-05-21T08:42:44;17.10;69.30
78345;DHT22;67620;51.134;6.548;2023-05-21T08:45:14;17.20;69.00
78345;DHT22;67620;51.134;6.548;2023-05-21T08:47:44;17.30;68.70
78345;DHT22;67620;51.134;6.548;2023-05-21T08:50:12;17.30;68.80
78345;DHT22;67620;51.134;6.548;2023-05-21T08:52:38;17.30;68.80
78345;DHT22;67620;51.134;6.548;2023-05-21T08:55:05;17.40;68.90
78345;DHT22;67620;51.134;6.548;2023-05-21T08:57:31;17.50;68.70
78345;DHT22;67620;51.134;6.548;2023-05-21T08:59:57;17.50;69.10
78345;DHT22;67620;51.134;6.548;2023-05-21T09:02:23;17.60;68.40
78345;DHT22;67620;51.134;6.548;2023-05-21T09:04:52;17.60;68.80
78345;DHT22;67620;51.134;6.548;2023-05-21T09:07:24;17.60;68.20
78345;DHT22;67620;51.134;6.548;2023-05-21T09:09:54;17.60;67.60
78345;DHT22;67620;51.134;6.548;2023-05-21T09:12:20;17.60;68.60
78345;DHT22;67620;51.134;6.548;2023-05-21T09:14:46;17.60;69.10
78345;DHT22;67620;51.134;6.548;2023-05-21T09:17:13;17.70;68.50
78345;DHT22;67620;51.134;6.548;2023-05-21T09:22:36;17.80;68.20
78345;DHT22;67620;51.134;6.548;2023-05-21T09:25:06;17.90;68.50
78345;DHT22;67620;51.134;6.548;2023-05-21T09:27:34;18.00;69.10
78345;DHT22;67620;51.134;6.548;2023-05-21T09:30:08;18.10;68.10
78345;DHT22;67620;51.134;6.548;2023-05-21T09:32:34;18.10;67.80
78345;DHT22;67620;51.134;6.548;2023-05-21T09:35:11;18.20;67.90
78345;DHT22;67620;51.134;6.548;2023-05-21T09:37:40;18.20;68.10
78345;DHT22;67620;51.134;6.548;2023-05-21T09:42:42;18.40;67.10
78345;DHT22;67620;51.134;6.548;2023-05-21T09:45:08;18.50;66.40
78345;DHT22;67620;51.134;6.548;2023-05-21T09:47:40;18.50;67.00
78345;DHT22;67620;51.134;6.548;2023-05-21T09:50:08;18.60;65.90
78345;DHT22;67620;51.134;6.548;2023-05-21T09:52:35;18.60;65.90
78345;DHT22;67620;51.134;6.548;2023-05-21T09:55:03;18.60;65.90
78345;DHT22;67620;51.134;6.548;2023-05-21T09:57:28;18.60;66.20
78345;DHT22;67620;51.134;6.548;2023-05-21T09:59:54;18.70;66.40
78345;DHT22;67620;51.134;6.548;2023-05-21T10:02:21;18.70;66.30
78345;DHT22;67620;51.134;6.548;2023-05-21T10:04:51;18.80;67.10
78345;DHT22;67620;51.134;6.548;2023-05-21T10:07:20;18.80;65.60
78345;DHT22;67620;51.134;6.548;2023-05-21T10:09:55;18.90;65.40
78345;DHT22;67620;51.134;6.548;2023-05-21T10:12:22;18.90;65.00
78345;DHT22;67620;51.134;6.548;2023-05-21T10:14:58;18.90;65.50
78345;DHT22;67620;51.134;6.548;2023-05-21T10:17:26;18.90;65.40
78345;DHT22;67620;51.134;6.548;2023-05-21T10:19:54;18.90;65.60
78345;DHT22;67620;51.134;6.548;2023-05-21T10:22:22;19.00;65.80
78345;DHT22;67620;51.134;6.548;2023-05-21T10:24:49;19.00;65.30
78345;DHT22;67620;51.134;6.548;2023-05-21T10:27:16;19.00;65.70
78345;DHT22;67620;51.134;6.548;2023-05-21T10:29:43;19.00;65.00
78345;DHT22;67620;51.134;6.548;2023-05-21T10:32:11;19.00;65.30
78345;DHT22;67620;51.134;6.548;2023-05-21T10:34:37;19.00;64.60
78345;DHT22;67620;51.134;6.548;2023-05-21T10:37:03;19.00;65.30
78345;DHT22;67620;51.134;6.548;2023-05-21T10:39:32;19.10;65.40
78345;DHT22;67620;51.134;6.548;2023-05-21T10:42:15;19.10;65.20
78345;DHT22;67620;51.134;6.548;2023-05-21T10:53:23;19.30;65.70
78345;DHT22;67620;51.134;6.548;2023-05-21T10:56:07;19.40;65.10
78345;DHT22;67620;51.134;6.548;2023-05-21T11:01:13;19.40;64.70
78345;DHT22;67620;51.134;6.548;2023-05-21T11:03:39;19.50;64.20
78345;DHT22;67620;51.134;6.548;2023-05-21T11:06:05;19.60;65.10
78345;DHT22;67620;51.134;6.548;2023-05-21T11:08:31;19.70;65.80
78345;DHT22;67620;51.134;6.548;2023-05-21T11:11:00;19.70;64.70
78345;DHT22;67620;51.134;6.548;2023-05-21T11:13:27;19.60;64.60
78345;DHT22;67620;51.134;6.548;2023-05-21T11:21:15;19.70;64.00
78345;DHT22;67620;51.134;6.548;2023-05-21T11:23:53;19.80;65.20
78345;DHT22;67620;51.134;6.548;2023-05-21T11:26:25;19.90;65.40
78345;DHT22;67620;51.134;6.548;2023-05-21T11:31:29;20.00;65.30
78345;DHT22;67620;51.134;6.548;2023-05-21T11:34:17;20.10;64.40
78345;DHT22;67620;51.134;6.548;2023-05-21T11:36:45;20.10;65.30
78345;DHT22;67620;51.134;6.548;2023-05-21T11:39:13;20.20;64.10
78345;DHT22;67620;51.134;6.548;2023-05-21T11:42:01;20.20;64.00
78345;DHT22;67620;51.134;6.548;2023-05-21T11:47:09;20.30;63.50
78345;DHT22;67620;51.134;6.548;2023-05-21T11:49:36;20.40;63.70
78345;DHT22;67620;51.134;6.548;2023-05-21T11:52:03;20.40;64.20
78345;DHT22;67620;51.134;6.548;2023-05-21T11:54:30;20.40;63.50
78345;DHT22;67620;51.134;6.548;2023-05-21T11:57:01;20.50;64.10
78345;DHT22;67620;51.134;6.548;2023-05-21T11:59:27;20.60;64.10
78345;DHT22;67620;51.134;6.548;2023-05-21T12:01:54;20.60;64.70
78345;DHT22;67620;51.134;6.548;2023-05-21T12:04:20;20.60;62.40
78345;DHT22;67620;51.134;6.548;2023-05-21T12:06:46;20.70;63.50
78345;DHT22;67620;51.134;6.548;2023-05-21T12:09:12;20.70;64.90
78345;DHT22;67620;51.134;6.548;2023-05-21T12:11:39;20.80;62.70
78345;DHT22;67620;51.134;6.548;2023-05-21T12:14:11;20.80;63.20
78345;DHT22;67620;51.134;6.548;2023-05-21T12:16:38;20.90;62.90
78345;DHT22;67620;51.134;6.548;2023-05-21T12:19:04;20.90;62.70
78345;DHT22;67620;51.134;6.548;2023-05-21T12:21:30;20.90;63.40
78345;DHT22;67620;51.134;6.548;2023-05-21T12:23:57;21.00;63.10
78345;DHT22;67620;51.134;6.548;2023-05-21T12:26:23;21.00;62.00
78345;DHT22;67620;51.134;6.548;2023-05-21T12:28:55;21.10;63.10
78345;DHT22;67620;51.134;6.548;2023-05-21T12:31:21;21.10;63.10
78345;DHT22;67620;51.134;6.548;2023-05-21T12:33:48;21.10;62.00
78345;DHT22;67620;51.134;6.548;2023-05-21T12:36:32;21.20;62.20
78345;DHT22;67620;51.134;6.548;2023-05-21T12:38:58;21.30;62.70
78345;DHT22;67620;51.134;6.548;2023-05-21T12:41:25;21.20;62.40
78345;DHT22;67620;51.134;6.548;2023-05-21T12:43:50;21.30;62.00
78345;DHT22;67620;51.134;6.548;2023-05-21T12:46:16;21.40;61.90
78345;DHT22;67620;51.134;6.548;2023-05-21T12:48:52;21.40;61.50
78345;DHT22;67620;51.134;6.548;2023-05-21T12:51:19;21.40;62.00
78345;DHT22;67620;51.134;6.548;2023-05-21T12:53:45;21.40;61.70
78345;DHT22;67620;51.134;6.548;2023-05-21T12:56:12;21.50;61.70
78345;DHT22;67620;51.134;6.548;2023-05-21T12:58:38;21.50;61.60
78345;DHT22;67620;51.134;6.548;2023-05-21T13:01:08;21.50;62.80
78345;DHT22;67620;51.134;6.548;2023-05-21T13:03:34;21.60;61.80
78345;DHT22;67620;51.134;6.548;2023-05-21T13:06:01;21.60;61.60
78345;DHT22;67620;51.134;6.548;2023-05-21T13:08:27;21.60;60.70
78345;DHT22;67620;51.134;6.548;2023-05-21T13:10:52;21.70;61.50
78345;DHT22;67620;51.134;6.548;2023-05-21T13:13:18;21.70;61.40
78345;DHT22;67620;51.134;6.548;2023-05-21T13:15:43;21.80;60.70
78345;DHT22;67620;51.134;6.548;2023-05-21T13:18:09;21.70;61.10
78345;DHT22;67620;51.134;6.548;2023-05-21T13:20:36;21.80;62.00
78345;DHT22;67620;51.134;6.548;2023-05-21T13:23:02;21.80;60.80
78345;DHT22;67620;51.134;6.548;2023-05-21T13:25:29;21.90;62.00
78345;DHT22;67620;51.134;6.548;2023-05-21T13:28:03;22.00;61.00
78345;DHT22;67620;51.134;6.548;2023-05-21T13:30:34;21.90;60.60
78345;DHT22;67620;51.134;6.548;2023-05-21T13:33:00;22.00;60.50
78345;DHT22;67620;51.134;6.548;2023-05-21T13:35:26;22.00;61.00
78345;DHT22;67620;51.134;6.548;2023-05-21T13:37:51;22.00;61.10
78345;DHT22;67620;51.134;6.548;2023-05-21T13:40:17;22.00;61.60
78345;DHT22;67620;51.134;6.548;2023-05-21T13:42:44;22.10;60.90
78345;DHT22;67620;51.134;6.548;2023-05-21T13:45:11;22.10;61.30
78345;DHT22;67620;51.134;6.548;2023-05-21T13:47:37;22.20;62.00
78345;DHT22;67620;51.134;6.548;2023-05-21T13:50:04;22.20;60.40
78345;DHT22;67620;51.134;6.548;2023-05-21T13:52:30;22.10;60.30
78345;DHT22;67620;51.134;6.548;2023-05-21T13:54:55;22.20;60.80
78345;DHT22;67620;51.134;6.548;2023-05-21T13:57:21;22.20;60.30
78345;DHT22;67620;51.134;6.548;2023-05-21T13:59:47;22.30;60.50
78345;DHT22;67620;51.134;6.548;2023-05-21T14:02:12;22.30;61.00
78345;DHT22;67620;51.134;6.548;2023-05-21T14:04:38;22.30;60.00
78345;DHT22;67620;51.134;6.548;2023-05-21T14:07:04;22.30;59.00
78345;DHT22;67620;51.134;6.548;2023-05-21T14:09:30;22.40;59.10
78345;DHT22;67620;51.134;6.548;2023-05-21T14:11:56;22.30;59.10
78345;DHT22;67620;51.134;6.548;2023-05-21T14:14:22;22.40;59.20
78345;DHT22;67620;51.134;6.548;2023-05-21T14:16:48;22.40;60.20
78345;DHT22;67620;51.134;6.548;2023-05-21T14:19:15;22.50;59.20
78345;DHT22;67620;51.134;6.548;2023-05-21T14:21:41;22.50;59.10
78345;DHT22;67620;51.134;6.548;2023-05-21T14:24:06;22.50;58.80
78345;DHT22;67620;51.134;6.548;2023-05-21T14:26:32;22.50;59.40
78345;DHT22;67620;51.134;6.548;2023-05-21T14:28:57;22.50;58.60
78345;DHT22;67620;51.134;6.548;2023-05-21T14:31:23;22.60;58.90
78345;DHT22;67620;51.134;6.548;2023-05-21T14:33:49;22.60;59.40
78345;DHT22;67620;51.134;6.548;2023-05-21T14:36:16;22.60;59.40
78345;DHT22;67620;51.134;6.548;2023-05-21T14:38:41;22.60;59.20
78345;DHT22;67620;51.134;6.548;2023-05-21T14:41:07;22.60;59.10
78345;DHT22;67620;51.134;6.548;2023-05-21T14:43:34;22.60;58.40
78345;DHT22;67620;51.134;6.548;2023-05-21T14:45:59;22.70;58.00
78345;DHT22;67620;51.134;6.548;2023-05-21T14:48:25;22.70;58.50
78345;DHT22;67620;51.134;6.548;2023-05-21T14:50:51;22.70;58.90
78345;DHT22;67620;51.134;6.548;2023-05-21T14:53:17;22.70;59.00
78345;DHT22;67620;51.134;6.548;2023-05-21T14:55:43;22.70;58.20
78345;DHT22;67620;51.134;6.548;2023-05-21T14:58:08;22.70;59.00
78345;DHT22;67620;51.134;6.548;2023-05-21T15:00:34;22.70;58.70
78345;DHT22;67620;51.134;6.548;2023-05-21T15:03:01;22.80;59.00
78345;DHT22;67620;51.134;6.548;2023-05-21T15:05:27;22.80;58.70
78345;DHT22;67620;51.134;6.548;2023-05-21T15:07:53;22.80;58.30
78345;DHT22;67620;51.134;6.548;2023-05-21T15:10:26;22.80;57.90
78345;DHT22;67620;51.134;6.548;2023-05-21T15:12:52;22.90;57.90
78345;DHT22;67620;51.134;6.548;2023-05-21T15:15:18;22.90;57.70
78345;DHT22;67620;51.134;6.548;2023-05-21T15:17:47;22.80;58.00
78345;DHT22;67620;51.134;6.548;2023-05-21T15:20:13;22.90;57.70
78345;DHT22;67620;51.134;6.548;2023-05-21T15:22:39;22.90;58.40
78345;DHT22;67620;51.134;6.548;2023-05-21T15:25:05;22.90;59.40
78345;DHT22;67620;51.134;6.548;2023-05-21T15:27:31;22.90;58.80
78345;DHT22;67620;51.134;6.548;2023-05-21T15:29:57;22.90;58.80
78345;DHT22;67620;51.134;6.548;2023-05-21T15:32:23;22.90;58.30
78345;DHT22;67620;51.134;6.548;2023-05-21T15:34:49;22.90;59.30
78345;DHT22;67620;51.134;6.548;2023-05-21T15:37:14;22.90;58.50
78345;DHT22;67620;51.134;6.548;2023-05-21T15:39:43;22.90;58.50
78345;DHT22;67620;51.134;6.548;2023-05-21T15:42:10;22.90;58.20
78345;DHT22;67620;51.134;6.548;2023-05-21T15:44:36;22.90;58.50
78345;DHT22;67620;51.134;6.548;2023-05-21T15:47:02;22.80;57.90
78345;DHT22;67620;51.134;6.548;2023-05-21T15:49:28;22.80;57.70
78345;DHT22;67620;51.134;6.548;2023-05-21T15:51:53;22.90;57.90
78345;DHT22;67620;51.134;6.548;2023-05-21T15:54:21;22.80;57.60